sensor_id;sensor_type;location;lat;lon;timestamp;P1;durP1;ratioP1;P2;durP2;ratioP2
75700;SDS011;64321;48.796;44.740;2023-03-31T00:03:24;3.58;;;2.22;;
75700;SDS011;64321;48.796;44.740;2023-03-31T00:09:04;5.38;;;1.73;;
75700;SDS011;64321;48.796;44.740;2023-03-31T00:14:49;3.70;;;2.22;;
75700;SDS011;64321;48.796;44.740;2023-03-31T00:20:23;5.32;;;2.40;;
75700;SDS011;64321;48.796;44.740;2023-03-31T00:25:49;2.10;;;1.02;;
75700;SDS011;64321;48.796;44.740;2023-03-31T00:31:18;3.33;;;2.13;;
75700;SDS011;64321;48.796;44.740;2023-03-31T00:36:59;3.58;;;2.55;;
75700;SDS011;64321;48.796;44.740;2023-03-31T00:42:42;3.80;;;1.75;;
75700;SDS011;64321;48.796;44.740;2023-03-31T00:48:07;4.20;;;2.03;;
75700;SDS011;64321;48.796;44.740;2023-03-31T00:53:32;4.13;;;1.73;;
75700;SDS011;64321;48.796;44.740;2023-03-31T00:59:03;4.18;;;2.28;;
75700;SDS011;64321;48.796;44.740;2023-03-31T01:04:40;4.63;;;2.55;;
75700;SDS011;64321;48.796;44.740;2023-03-31T01:16:04;3.95;;;1.92;;
75700;SDS011;64321;48.796;44.740;2023-03-31T01:21:59;4.07;;;1.67;;
75700;SDS011;64321;48.796;44.740;2023-03-31T01:27:56;4.13;;;1.83;;
75700;SDS011;64321;48.796;44.740;2023-03-31T01:33:40;5.40;;;2.53;;
75700;SDS011;64321;48.796;44.740;2023-03-31T01:39:29;3.97;;;2.13;;
75700;SDS011;64321;48.796;44.740;2023-03-31T01:50:56;6.78;;;2.53;;
75700;SDS011;64321;48.796;44.740;2023-03-31T01:56:19;4.93;;;2.47;;
75700;SDS011;64321;48.796;44.740;2023-03-31T02:02:16;5.95;;;3.08;;
75700;SDS011;64321;48.796;44.740;2023-03-31T02:07:46;4.20;;;1.45;;
75700;SDS011;64321;48.796;44.740;2023-03-31T02:19:53;5.72;;;2.63;;
75700;SDS011;64321;48.796;44.740;2023-03-31T02:26:26;4.35;;;2.70;;
75700;SDS011;64321;48.796;44.740;2023-03-31T02:32:24;6.55;;;3.38;;
75700;SDS011;64321;48.796;44.740;2023-03-31T02:39:14;6.55;;;3.58;;
75700;SDS011;64321;48.796;44.740;2023-03-31T02:45:32;4.03;;;2.33;;
75700;SDS011;64321;48.796;44.740;2023-03-31T03:19:43;4.43;;;3.25;;
75700;SDS011;64321;48.796;44.740;2023-03-31T03:31:20;4.85;;;2.55;;
75700;SDS011;64321;48.796;44.740;2023-03-31T03:37:10;5.43;;;2.55;;
75700;SDS011;64321;48.796;44.740;2023-03-31T03:42:42;3.92;;;1.60;;
75700;SDS011;64321;48.796;44.740;2023-03-31T03:47:59;6.28;;;2.42;;
75700;SDS011;64321;48.796;44.740;2023-03-31T03:53:20;5.13;;;1.52;;
75700;SDS011;64321;48.796;44.740;2023-03-31T03:59:24;8.23;;;2.60;;
75700;SDS011;64321;48.796;44.740;2023-03-31T04:05:11;3.67;;;1.77;;
75700;SDS011;64321;48.796;44.740;2023-03-31T04:17:17;4.75;;;2.55;;
75700;SDS011;64321;48.796;44.740;2023-03-31T04:23:08;3.47;;;1.42;;
75700;SDS011;64321;48.796;44.740;2023-03-31T04:28:40;2.67;;;1.40;;
75700;SDS011;64321;48.796;44.740;2023-03-31T04:34:41;3.55;;;2.97;;
75700;SDS011;64321;48.796;44.740;2023-03-31T04:40:20;2.92;;;1.98;;
75700;SDS011;64321;48.796;44.740;2023-03-31T04:45:38;4.53;;;3.20;;
75700;SDS011;64321;48.796;44.740;2023-03-31T04:51:23;4.13;;;2.88;;
75700;SDS011;64321;48.796;44.740;2023-03-31T04:57:02;4.50;;;1.65;;
75700;SDS011;64321;48.796;44.740;2023-03-31T05:02:20;3.97;;;2.22;;
75700;SDS011;64321;48.796;44.740;2023-03-31T05:08:22;5.32;;;3.10;;
75700;SDS011;64321;48.796;44.740;2023-03-31T05:14:35;4.20;;;1.77;;
75700;SDS011;64321;48.796;44.740;2023-03-31T05:20:13;4.15;;;2.90;;
75700;SDS011;64321;48.796;44.740;2023-03-31T05:25:32;4.53;;;2.50;;
75700;SDS011;64321;48.796;44.740;2023-03-31T05:31:28;4.35;;;1.98;;
75700;SDS011;64321;48.796;44.740;2023-03-31T05:36:41;3.58;;;2.25;;
75700;SDS011;64321;48.796;44.740;2023-03-31T05:42:11;3.80;;;1.38;;
75700;SDS011;64321;48.796;44.740;2023-03-31T05:47:41;3.33;;;1.45;;
75700;SDS011;64321;48.796;44.740;2023-03-31T05:53:37;5.85;;;2.78;;
75700;SDS011;64321;48.796;44.740;2023-03-31T05:59:31;3.90;;;3.00;;
75700;SDS011;64321;48.796;44.740;2023-03-31T06:06:02;3.20;;;2.45;;
75700;SDS011;64321;48.796;44.740;2023-03-31T06:11:30;3.38;;;1.90;;
75700;SDS011;64321;48.796;44.740;2023-03-31T06:17:32;2.40;;;1.20;;
75700;SDS011;64321;48.796;44.740;2023-03-31T06:23:36;3.95;;;1.38;;
75700;SDS011;64321;48.796;44.740;2023-03-31T06:29:11;4.45;;;2.35;;
75700;SDS011;64321;48.796;44.740;2023-03-31T06:35:15;4.20;;;2.92;;
75700;SDS011;64321;48.796;44.740;2023-03-31T06:41:13;2.83;;;2.03;;
75700;SDS011;64321;48.796;44.740;2023-03-31T06:46:46;2.55;;;0.90;;
75700;SDS011;64321;48.796;44.740;2023-03-31T06:52:29;5.70;;;3.25;;
75700;SDS011;64321;48.796;44.740;2023-03-31T06:57:39;2.80;;;1.65;;
75700;SDS011;64321;48.796;44.740;2023-03-31T07:07:55;3.03;;;2.38;;
75700;SDS011;64321;48.796;44.740;2023-03-31T07:13:01;3.40;;;2.22;;
75700;SDS011;64321;48.796;44.740;2023-03-31T07:18:09;2.05;;;0.95;;
75700;SDS011;64321;48.796;44.740;2023-03-31T07:23:17;3.97;;;2.78;;
75700;SDS011;64321;48.796;44.740;2023-03-31T07:28:53;4.47;;;2.67;;
75700;SDS011;64321;48.796;44.740;2023-03-31T07:34:05;3.45;;;2.42;;
75700;SDS011;64321;48.796;44.740;2023-03-31T07:39:32;3.70;;;2.33;;
75700;SDS011;64321;48.796;44.740;2023-03-31T07:50:32;2.25;;;1.08;;
75700;SDS011;64321;48.796;44.740;2023-03-31T07:56:09;2.72;;;1.15;;
75700;SDS011;64321;48.796;44.740;2023-03-31T08:01:56;3.05;;;1.67;;
75700;SDS011;64321;48.796;44.740;2023-03-31T08:07:27;4.88;;;1.63;;
75700;SDS011;64321;48.796;44.740;2023-03-31T08:12:45;2.90;;;1.10;;
75700;SDS011;64321;48.796;44.740;2023-03-31T08:18:18;2.92;;;1.23;;
75700;SDS011;64321;48.796;44.740;2023-03-31T08:24:22;4.25;;;2.40;;
75700;SDS011;64321;48.796;44.740;2023-03-31T08:30:09;3.40;;;2.67;;
75700;SDS011;64321;48.796;44.740;2023-03-31T08:36:12;7.43;;;1.30;;
75700;SDS011;64321;48.796;44.740;2023-03-31T08:42:04;8.13;;;3.33;;
75700;SDS011;64321;48.796;44.740;2023-03-31T08:47:39;4.13;;;2.22;;
75700;SDS011;64321;48.796;44.740;2023-03-31T08:53:28;3.65;;;1.58;;
75700;SDS011;64321;48.796;44.740;2023-03-31T08:59:26;7.10;;;3.65;;
75700;SDS011;64321;48.796;44.740;2023-03-31T09:11:54;4.65;;;2.03;;
75700;SDS011;64321;48.796;44.740;2023-03-31T09:17:40;4.40;;;1.50;;
75700;SDS011;64321;48.796;44.740;2023-03-31T09:35:22;2.70;;;1.52;;
75700;SDS011;64321;48.796;44.740;2023-03-31T09:40:41;2.72;;;1.38;;
75700;SDS011;64321;48.796;44.740;2023-03-31T09:46:16;5.28;;;2.22;;
75700;SDS011;64321;48.796;44.740;2023-03-31T09:52:11;2.30;;;1.08;;
75700;SDS011;64321;48.796;44.740;2023-03-31T10:04:23;3.70;;;2.90;;
75700;SDS011;64321;48.796;44.740;2023-03-31T10:10:25;5.10;;;2.05;;
75700;SDS011;64321;48.796;44.740;2023-03-31T10:16:20;2.55;;;1.25;;
75700;SDS011;64321;48.796;44.740;2023-03-31T10:21:47;2.92;;;1.90;;
75700;SDS011;64321;48.796;44.740;2023-03-31T10:27:52;4.28;;;1.58;;
75700;SDS011;64321;48.796;44.740;2023-03-31T10:45:28;2.75;;;1.75;;
75700;SDS011;64321;48.796;44.740;2023-03-31T10:51:16;2.63;;;1.15;;
75700;SDS011;64321;48.796;44.740;2023-03-31T10:56:51;3.42;;;1.70;;
75700;SDS011;64321;48.796;44.740;2023-03-31T11:15:41;3.15;;;2.28;;
75700;SDS011;64321;48.796;44.740;2023-03-31T11:21:11;2.75;;;1.15;;
75700;SDS011;64321;48.796;44.740;2023-03-31T11:27:21;3.05;;;2.38;;
75700;SDS011;64321;48.796;44.740;2023-03-31T11:44:49;2.78;;;1.45;;
75700;SDS011;64321;48.796;44.740;2023-03-31T11:51:18;5.07;;;2.10;;
75700;SDS011;64321;48.796;44.740;2023-03-31T11:56:44;3.88;;;2.05;;
75700;SDS011;64321;48.796;44.740;2023-03-31T12:02:38;2.97;;;1.67;;
75700;SDS011;64321;48.796;44.740;2023-03-31T12:09:12;3.22;;;2.28;;
75700;SDS011;64321;48.796;44.740;2023-03-31T12:14:47;4.05;;;1.25;;
75700;SDS011;64321;48.796;44.740;2023-03-31T12:20:24;4.25;;;1.63;;
75700;SDS011;64321;48.796;44.740;2023-03-31T12:26:30;5.05;;;2.92;;
75700;SDS011;64321;48.796;44.740;2023-03-31T12:31:59;4.65;;;1.92;;
75700;SDS011;64321;48.796;44.740;2023-03-31T12:37:44;3.72;;;1.90;;
75700;SDS011;64321;48.796;44.740;2023-03-31T13:01:02;3.30;;;2.65;;
75700;SDS011;64321;48.796;44.740;2023-03-31T13:16:37;5.63;;;2.92;;
75700;SDS011;64321;48.796;44.740;2023-03-31T13:21:53;3.65;;;1.45;;
75700;SDS011;64321;48.796;44.740;2023-03-31T13:26:57;3.90;;;1.42;;
75700;SDS011;64321;48.796;44.740;2023-03-31T13:37:09;5.03;;;2.05;;
75700;SDS011;64321;48.796;44.740;2023-03-31T13:48:14;4.57;;;2.70;;
75700;SDS011;64321;48.796;44.740;2023-03-31T14:04:00;7.18;;;4.25;;
75700;SDS011;64321;48.796;44.740;2023-03-31T14:09:02;8.85;;;4.45;;
75700;SDS011;64321;48.796;44.740;2023-03-31T14:14:16;6.03;;;1.95;;
75700;SDS011;64321;48.796;44.740;2023-03-31T14:19:34;4.75;;;2.60;;
75700;SDS011;64321;48.796;44.740;2023-03-31T14:30:11;4.88;;;2.75;;
75700;SDS011;64321;48.796;44.740;2023-03-31T14:40:25;7.75;;;4.32;;
75700;SDS011;64321;48.796;44.740;2023-03-31T14:45:34;5.78;;;2.72;;
75700;SDS011;64321;48.796;44.740;2023-03-31T14:50:44;7.22;;;3.85;;
75700;SDS011;64321;48.796;44.740;2023-03-31T14:56:00;4.68;;;2.80;;
75700;SDS011;64321;48.796;44.740;2023-03-31T15:01:16;8.38;;;3.80;;
75700;SDS011;64321;48.796;44.740;2023-03-31T15:07:06;6.68;;;2.97;;
75700;SDS011;64321;48.796;44.740;2023-03-31T15:13:20;6.13;;;2.67;;
75700;SDS011;64321;48.796;44.740;2023-03-31T15:18:58;5.95;;;2.78;;
75700;SDS011;64321;48.796;44.740;2023-03-31T15:24:24;6.10;;;2.75;;
75700;SDS011;64321;48.796;44.740;2023-03-31T15:30:05;4.45;;;2.47;;
75700;SDS011;64321;48.796;44.740;2023-03-31T15:35:41;5.80;;;2.78;;
75700;SDS011;64321;48.796;44.740;2023-03-31T15:41:45;6.30;;;2.80;;
75700;SDS011;64321;48.796;44.740;2023-03-31T15:48:02;6.90;;;3.08;;
75700;SDS011;64321;48.796;44.740;2023-03-31T16:00:13;12.30;;;4.47;;
75700;SDS011;64321;48.796;44.740;2023-03-31T16:06:03;11.02;;;3.95;;
75700;SDS011;64321;48.796;44.740;2023-03-31T16:12:00;6.72;;;3.45;;
75700;SDS011;64321;48.796;44.740;2023-03-31T16:18:06;7.65;;;3.95;;
75700;SDS011;64321;48.796;44.740;2023-03-31T16:23:31;5.32;;;2.35;;
75700;SDS011;64321;48.796;44.740;2023-03-31T16:35:58;7.72;;;2.30;;
75700;SDS011;64321;48.796;44.740;2023-03-31T16:41:34;5.95;;;2.03;;
75700;SDS011;64321;48.796;44.740;2023-03-31T16:47:52;6.38;;;2.03;;
75700;SDS011;64321;48.796;44.740;2023-03-31T16:53:52;7.85;;;2.55;;
75700;SDS011;64321;48.796;44.740;2023-03-31T16:59:26;8.38;;;2.55;;
75700;SDS011;64321;48.796;44.740;2023-03-31T17:05:41;8.82;;;2.22;;
75700;SDS011;64321;48.796;44.740;2023-03-31T17:11:16;9.82;;;2.85;;
75700;SDS011;64321;48.796;44.740;2023-03-31T17:17:16;9.88;;;3.70;;
75700;SDS011;64321;48.796;44.740;2023-03-31T17:22:47;10.70;;;3.90;;
75700;SDS011;64321;48.796;44.740;2023-03-31T17:28:48;6.75;;;3.00;;
75700;SDS011;64321;48.796;44.740;2023-03-31T17:34:22;8.90;;;3.42;;
75700;SDS011;64321;48.796;44.740;2023-03-31T17:39:57;7.05;;;3.03;;
75700;SDS011;64321;48.796;44.740;2023-03-31T17:45:38;6.20;;;3.30;;
75700;SDS011;64321;48.796;44.740;2023-03-31T17:57:48;7.60;;;2.33;;
75700;SDS011;64321;48.796;44.740;2023-03-31T18:03:09;9.38;;;3.58;;
75700;SDS011;64321;48.796;44.740;2023-03-31T18:08:40;9.18;;;4.25;;
75700;SDS011;64321;48.796;44.740;2023-03-31T18:14:37;14.90;;;6.95;;
75700;SDS011;64321;48.796;44.740;2023-03-31T18:20:22;9.18;;;4.60;;
75700;SDS011;64321;48.796;44.740;2023-03-31T18:25:59;7.53;;;4.20;;
75700;SDS011;64321;48.796;44.740;2023-03-31T18:31:24;10.60;;;4.35;;
75700;SDS011;64321;48.796;44.740;2023-03-31T18:36:51;8.75;;;3.78;;
75700;SDS011;64321;48.796;44.740;2023-03-31T18:42:27;10.85;;;7.07;;
75700;SDS011;64321;48.796;44.740;2023-03-31T18:47:57;14.27;;;6.93;;
75700;SDS011;64321;48.796;44.740;2023-03-31T18:53:44;13.00;;;6.43;;
75700;SDS011;64321;48.796;44.740;2023-03-31T18:59:22;18.98;;;9.50;;
75700;SDS011;64321;48.796;44.740;2023-03-31T19:05:16;11.35;;;5.50;;
75700;SDS011;64321;48.796;44.740;2023-03-31T19:11:12;10.38;;;4.78;;
75700;SDS011;64321;48.796;44.740;2023-03-31T19:17:03;9.07;;;3.70;;
75700;SDS011;64321;48.796;44.740;2023-03-31T19:22:29;6.88;;;3.72;;
75700;SDS011;64321;48.796;44.740;2023-03-31T19:33:36;7.15;;;3.33;;
75700;SDS011;64321;48.796;44.740;2023-03-31T19:39:16;6.07;;;2.97;;
75700;SDS011;64321;48.796;44.740;2023-03-31T19:45:20;7.45;;;3.90;;
75700;SDS011;64321;48.796;44.740;2023-03-31T19:50:55;10.70;;;3.03;;
75700;SDS011;64321;48.796;44.740;2023-03-31T19:56:29;6.13;;;2.83;;
75700;SDS011;64321;48.796;44.740;2023-03-31T20:02:31;6.47;;;2.80;;
75700;SDS011;64321;48.796;44.740;2023-03-31T20:08:04;4.90;;;2.22;;
75700;SDS011;64321;48.796;44.740;2023-03-31T20:13:15;5.93;;;2.28;;
75700;SDS011;64321;48.796;44.740;2023-03-31T20:18:52;6.15;;;2.92;;
75700;SDS011;64321;48.796;44.740;2023-03-31T20:24:47;7.10;;;3.03;;
75700;SDS011;64321;48.796;44.740;2023-03-31T20:30:53;9.82;;;3.50;;
75700;SDS011;64321;48.796;44.740;2023-03-31T20:36:16;9.38;;;3.60;;
75700;SDS011;64321;48.796;44.740;2023-03-31T20:41:55;10.70;;;4.32;;
75700;SDS011;64321;48.796;44.740;2023-03-31T20:47:40;8.38;;;3.83;;
75700;SDS011;64321;48.796;44.740;2023-03-31T20:53:06;13.07;;;3.72;;
75700;SDS011;64321;48.796;44.740;2023-03-31T20:58:50;5.85;;;3.13;;
75700;SDS011;64321;48.796;44.740;2023-03-31T21:04:31;5.82;;;3.25;;
75700;SDS011;64321;48.796;44.740;2023-03-31T21:10:21;7.20;;;3.30;;
75700;SDS011;64321;48.796;44.740;2023-03-31T21:15:59;8.13;;;3.10;;
75700;SDS011;64321;48.796;44.740;2023-03-31T21:27:55;8.10;;;3.33;;
75700;SDS011;64321;48.796;44.740;2023-03-31T21:34:25;9.02;;;3.70;;
75700;SDS011;64321;48.796;44.740;2023-03-31T21:40:43;8.82;;;2.88;;
75700;SDS011;64321;48.796;44.740;2023-03-31T21:46:25;10.07;;;3.35;;
75700;SDS011;64321;48.796;44.740;2023-03-31T21:58:23;8.60;;;2.88;;
75700;SDS011;64321;48.796;44.740;2023-03-31T22:04:33;5.90;;;2.92;;
75700;SDS011;64321;48.796;44.740;2023-03-31T22:10:32;9.05;;;3.25;;
75700;SDS011;64321;48.796;44.740;2023-03-31T22:16:22;5.30;;;2.63;;
75700;SDS011;64321;48.796;44.740;2023-03-31T22:21:46;6.97;;;2.95;;
75700;SDS011;64321;48.796;44.740;2023-03-31T22:27:27;5.50;;;2.30;;
75700;SDS011;64321;48.796;44.740;2023-03-31T22:33:44;6.95;;;3.30;;
75700;SDS011;64321;48.796;44.740;2023-03-31T22:39:21;6.28;;;2.72;;
75700;SDS011;64321;48.796;44.740;2023-03-31T22:44:52;6.15;;;2.90;;
75700;SDS011;64321;48.796;44.740;2023-03-31T22:50:46;7.28;;;2.83;;
75700;SDS011;64321;48.796;44.740;2023-03-31T22:56:30;9.02;;;3.03;;
75700;SDS011;64321;48.796;44.740;2023-03-31T23:02:14;6.57;;;2.85;;
75700;SDS011;64321;48.796;44.740;2023-03-31T23:14:57;6.38;;;2.63;;
75700;SDS011;64321;48.796;44.740;2023-03-31T23:26:40;6.47;;;2.50;;
75700;SDS011;64321;48.796;44.740;2023-03-31T23:32:25;5.88;;;3.13;;
75700;SDS011;64321;48.796;44.740;2023-03-31T23:37:39;9.25;;;2.97;;
75700;SDS011;64321;48.796;44.740;2023-03-31T23:43:11;9.77;;;3.53;;
75700;SDS011;64321;48.796;44.740;2023-03-31T23:48:51;6.70;;;2.67;;
